createdAt,value
2022-09-26T00:01:32.403Z,78.26
2022-09-26T00:04:04.973Z,78.53
2022-09-26T00:06:31.429Z,78.19
2022-09-26T00:08:58.812Z,78.21
2022-09-26T00:11:31.014Z,78.06
2022-09-26T00:14:01.318Z,78.06
2022-09-26T00:16:28.040Z,78.09
2022-09-26T00:18:56.562Z,78.09
2022-09-26T00:21:23.955Z,78.17
2022-09-26T00:23:51.294Z,78.11
2022-09-26T00:26:19.639Z,78.19
2022-09-26T00:28:46.250Z,78.58
2022-09-26T00:31:18.502Z,78.47
2022-09-26T00:33:45.274Z,78.40
2022-09-26T00:36:11.762Z,78.47
2022-09-26T00:38:38.755Z,78.19
2022-09-26T00:41:05.841Z,78.28
2022-09-26T00:43:41.844Z,77.78
2022-09-26T00:46:35.691Z,78.11
2022-09-26T00:49:34.342Z,77.29
2022-09-26T00:52:09.745Z,77.99
2022-09-26T00:54:38.740Z,78.15
2022-09-26T00:57:10.971Z,78.27
2022-09-26T00:59:41.746Z,78.23
2022-09-26T01:02:09.336Z,78.47
2022-09-26T01:04:38.365Z,78.46
2022-09-26T01:07:10.453Z,78.24
2022-09-26T01:09:39.209Z,77.73
2022-09-26T01:12:08.761Z,77.89
2022-09-26T01:14:37.693Z,78.13
2022-09-26T01:17:05.095Z,78.21
2022-09-26T01:19:56.503Z,78.93
2022-09-26T01:22:32.527Z,78.94
2022-09-26T01:25:32.400Z,78.92
2022-09-26T01:28:21.923Z,78.99
2022-09-26T01:30:54.913Z,79.08
2022-09-26T01:33:36.545Z,78.90
2022-09-26T01:36:16.172Z,78.47
2022-09-26T01:38:51.713Z,78.76
2022-09-26T01:41:36.892Z,78.71
2022-09-26T01:44:06.748Z,77.88
2022-09-26T01:46:42.639Z,77.96
2022-09-26T01:49:26.129Z,78.10
2022-09-26T01:52:10.490Z,77.90
2022-09-26T01:54:57.614Z,77.87
2022-09-26T01:57:31.493Z,78.42
2022-09-26T02:00:00.753Z,78.09
2022-09-26T02:02:29.207Z,78.27
2022-09-26T02:05:08.212Z,78.53
2022-09-26T02:07:44.365Z,78.74
2022-09-26T02:10:20.253Z,78.59
2022-09-26T02:12:50.728Z,78.63
2022-09-26T02:15:19.237Z,78.54
2022-09-26T02:17:49.111Z,78.24
2022-09-26T02:20:21.426Z,78.01
2022-09-26T02:22:47.893Z,78.03
2022-09-26T02:25:15.762Z,77.93
2022-09-26T02:27:42.148Z,77.65
2022-09-26T02:30:09.785Z,77.50
2022-09-26T02:32:37.252Z,77.66
2022-09-26T02:35:24.864Z,77.87
2022-09-26T02:37:53.463Z,77.69
2022-09-26T02:40:26.581Z,78.09
2022-09-26T02:42:58.156Z,78.17
2022-09-26T02:45:28.154Z,78.57
2022-09-26T02:48:12.939Z,78.36
2022-09-26T02:51:03.245Z,78.22
2022-09-26T02:53:48.449Z,78.23
2022-09-26T02:56:23.469Z,78.03
2022-09-26T02:58:55.279Z,77.81
2022-09-26T03:01:42.111Z,77.40
2022-09-26T03:04:22.581Z,77.72
2022-09-26T03:06:51.193Z,77.70
2022-09-26T03:09:18.772Z,77.38
2022-09-26T03:11:46.360Z,77.35
2022-09-26T03:14:13.230Z,77.24
2022-09-26T03:16:43.241Z,77.60
2022-09-26T03:19:12.068Z,77.16
2022-09-26T03:21:38.825Z,77.61
2022-09-26T03:24:05.511Z,77.52
2022-09-26T03:26:33.183Z,77.56
2022-09-26T03:29:02.341Z,77.39
2022-09-26T03:31:31.416Z,77.50
2022-09-26T03:34:00.398Z,77.99
2022-09-26T03:36:27.658Z,77.20
2022-09-26T03:38:54.081Z,77.69
2022-09-26T03:41:43.183Z,77.58
2022-09-26T03:44:21.782Z,77.38
2022-09-26T03:47:11.076Z,77.53
2022-09-26T03:49:42.120Z,77.27
2022-09-26T03:52:10.743Z,77.27
2022-09-26T03:54:37.622Z,78.03
2022-09-26T03:57:04.031Z,77.88
2022-09-26T03:59:33.481Z,77.53
2022-09-26T04:02:00.044Z,77.76
2022-09-26T04:04:27.669Z,78.05
2022-09-26T04:06:54.103Z,77.74
2022-09-26T04:09:20.868Z,78.16
2022-09-26T04:11:51.030Z,78.05
2022-09-26T04:14:17.678Z,77.80
2022-09-26T04:16:47.987Z,77.48
2022-09-26T04:19:33.730Z,77.50
2022-09-26T04:22:01.140Z,77.85
2022-09-26T04:24:30.727Z,77.68
2022-09-26T04:26:57.188Z,77.33
2022-09-26T04:29:24.312Z,77.40
2022-09-26T04:32:00.758Z,77.46
2022-09-26T04:34:39.898Z,77.26
2022-09-26T04:37:08.964Z,77.42
2022-09-26T04:39:35.912Z,76.78
2022-09-26T04:42:02.397Z,76.36
2022-09-26T04:44:30.338Z,76.29
2022-09-26T04:46:58.225Z,76.24
2022-09-26T04:49:36.844Z,75.86
2022-09-26T04:52:04.591Z,76.05
2022-09-26T04:54:31.112Z,76.06
2022-09-26T04:56:59.311Z,75.96
2022-09-26T04:59:25.686Z,76.29
2022-09-26T05:02:00.780Z,76.07
2022-09-26T05:04:36.137Z,76.56
2022-09-26T05:07:02.636Z,76.94
2022-09-26T05:09:35.944Z,76.76
2022-09-26T05:12:10.048Z,76.79
2022-09-26T05:14:38.151Z,76.80
2022-09-26T05:17:04.649Z,76.98
2022-09-26T05:19:32.230Z,76.69
2022-09-26T05:22:16.889Z,76.76
2022-09-26T05:25:01.956Z,76.70
2022-09-26T05:27:28.576Z,76.94
2022-09-26T05:29:56.980Z,76.78
2022-09-26T05:32:24.223Z,77.09
2022-09-26T05:34:51.909Z,77.03
2022-09-26T05:37:20.669Z,77.05
2022-09-26T05:40:05.962Z,76.78
2022-09-26T05:42:36.184Z,76.79
2022-09-26T05:45:03.787Z,76.87
2022-09-26T05:47:34.508Z,76.76
2022-09-26T05:50:01.107Z,76.67
2022-09-26T05:52:28.925Z,76.69
2022-09-26T05:54:56.441Z,76.57
2022-09-26T05:57:52.197Z,76.69
2022-09-26T06:00:21.343Z,76.88
2022-09-26T06:02:53.941Z,76.55
2022-09-26T06:05:34.998Z,76.29
2022-09-26T06:08:08.925Z,76.44
2022-09-26T06:10:42.424Z,76.04
2022-09-26T06:13:08.804Z,76.22
2022-09-26T06:15:43.205Z,76.30
2022-09-26T06:18:09.607Z,76.30
2022-09-26T06:20:35.991Z,76.06
2022-09-26T06:23:02.699Z,76.22
2022-09-26T06:25:29.349Z,76.01
2022-09-26T06:28:00.213Z,75.97
2022-09-26T06:30:27.254Z,76.04
2022-09-26T06:33:03.721Z,75.88
2022-09-26T06:36:00.498Z,75.68
2022-09-26T06:38:32.488Z,75.62
2022-09-26T06:40:59.019Z,75.74
2022-09-26T06:43:25.624Z,75.65
2022-09-26T06:46:11.020Z,75.80
2022-09-26T06:48:47.034Z,75.47
2022-09-26T06:51:19.968Z,75.47
2022-09-26T06:53:46.816Z,74.86
2022-09-26T06:56:18.516Z,75.01
2022-09-26T06:58:45.402Z,74.85
2022-09-26T07:01:15.301Z,74.81
2022-09-26T07:04:02.588Z,74.81
2022-09-26T07:06:38.163Z,75.03
2022-09-26T07:09:11.238Z,74.64
2022-09-26T07:12:15.028Z,74.77
2022-09-26T07:14:42.606Z,74.59
2022-09-26T07:17:21.500Z,74.55
2022-09-26T07:20:08.042Z,74.22
2022-09-26T07:23:00.180Z,74.34
2022-09-26T07:25:26.576Z,74.21
2022-09-26T07:27:53.090Z,73.90
2022-09-26T07:30:24.382Z,73.57
2022-09-26T07:33:01.063Z,74.08
2022-09-26T07:35:35.527Z,74.07
2022-09-26T07:38:02.502Z,73.96
2022-09-26T07:40:29.218Z,73.59
2022-09-26T07:43:18.561Z,73.67
2022-09-26T07:46:04.969Z,73.60
2022-09-26T07:48:50.108Z,73.25
2022-09-26T07:51:54.116Z,73.43
2022-09-26T07:54:21.693Z,73.41
2022-09-26T07:57:05.971Z,72.68
2022-09-26T07:59:58.622Z,72.52
2022-09-26T08:02:42.661Z,72.50
2022-09-26T08:05:11.478Z,72.28
2022-09-26T08:07:38.163Z,71.96
2022-09-26T08:10:24.802Z,71.67
2022-09-26T08:13:10.024Z,71.38
2022-09-26T08:16:06.130Z,71.43
2022-09-26T08:18:37.361Z,71.14
2022-09-26T08:21:05.675Z,70.94
2022-09-26T08:23:35.543Z,71.17
2022-09-26T08:26:31.020Z,71.10
2022-09-26T08:29:11.158Z,70.87
2022-09-26T08:31:38.637Z,70.88
2022-09-26T08:34:06.220Z,70.39
2022-09-26T08:36:37.061Z,70.24
2022-09-26T08:39:06.315Z,69.86
2022-09-26T08:42:01.890Z,68.92
2022-09-26T08:44:49.163Z,68.71
2022-09-26T08:47:49.741Z,68.57
2022-09-26T08:50:35.456Z,68.23
2022-09-26T08:53:03.654Z,67.97
2022-09-26T08:55:38.945Z,67.98
2022-09-26T08:58:12.491Z,67.32
2022-09-26T09:00:38.993Z,67.57
2022-09-26T09:03:22.963Z,67.77
2022-09-26T09:05:51.814Z,67.34
2022-09-26T09:08:35.221Z,67.20
2022-09-26T09:11:29.637Z,67.01
2022-09-26T09:13:55.993Z,66.82
2022-09-26T09:17:21.265Z,65.93
2022-09-26T09:19:51.532Z,65.63
2022-09-26T09:22:48.048Z,64.87
2022-09-26T09:25:32.736Z,64.33
2022-09-26T09:28:14.215Z,64.55
2022-09-26T09:30:50.529Z,63.97
2022-09-26T09:33:49.499Z,63.11
2022-09-26T09:36:41.617Z,63.10
2022-09-26T09:39:47.657Z,62.46
2022-09-26T09:42:36.178Z,62.11
2022-09-26T09:45:06.855Z,62.44
2022-09-26T09:47:38.252Z,61.59
2022-09-26T09:50:12.102Z,61.77
2022-09-26T09:52:54.532Z,60.74
2022-09-26T09:55:59.481Z,60.69
2022-09-26T09:58:29.902Z,60.51
2022-09-26T10:01:12.245Z,60.43
2022-09-26T10:03:44.439Z,60.09
2022-09-26T10:06:44.468Z,59.91
2022-09-26T10:09:38.417Z,60.05
2022-09-26T10:12:14.040Z,59.91
2022-09-26T10:15:19.573Z,59.26
2022-09-26T10:18:24.821Z,59.28
2022-09-26T10:21:17.839Z,58.88
2022-09-26T10:23:49.286Z,58.74
2022-09-26T10:26:39.637Z,58.11
2022-09-26T10:29:21.277Z,57.96
2022-09-26T10:31:55.495Z,57.94
2022-09-26T10:34:29.913Z,58.09
2022-09-26T10:36:56.977Z,57.82
2022-09-26T10:39:48.283Z,58.02
2022-09-26T10:42:14.945Z,57.07
2022-09-26T10:44:43.036Z,57.09
2022-09-26T10:47:26.312Z,57.02
2022-09-26T10:50:29.263Z,56.85
2022-09-26T10:53:15.526Z,57.06
2022-09-26T10:55:44.739Z,56.73
2022-09-26T10:58:22.692Z,56.55
2022-09-26T11:00:53.633Z,55.93
2022-09-26T11:03:41.266Z,56.17
2022-09-26T11:06:35.641Z,55.57
2022-09-26T11:09:18.567Z,55.46
2022-09-26T11:12:22.365Z,54.97
2022-09-26T11:14:53.074Z,55.08
2022-09-26T11:17:20.025Z,55.58
2022-09-26T11:19:58.292Z,56.01
2022-09-26T11:22:30.396Z,55.75
2022-09-26T11:25:07.230Z,56.12
2022-09-26T11:27:43.921Z,56.16
2022-09-26T11:30:19.415Z,56.42
2022-09-26T11:32:55.392Z,57.13
2022-09-26T11:35:51.687Z,57.23
2022-09-26T11:38:39.154Z,57.18
2022-09-26T11:41:36.634Z,57.49
2022-09-26T11:44:13.104Z,57.79
2022-09-26T11:47:05.833Z,57.51
2022-09-26T11:49:50.618Z,57.50
2022-09-26T11:52:49.542Z,57.27
2022-09-26T11:55:45.511Z,57.29
2022-09-26T11:58:14.705Z,57.15
2022-09-26T12:00:51.852Z,57.12
2022-09-26T12:03:31.321Z,57.43
2022-09-26T12:05:59.615Z,58.21
2022-09-26T12:08:41.951Z,58.25
2022-09-26T12:11:33.903Z,58.17
2022-09-26T12:14:09.222Z,58.30
2022-09-26T12:16:41.115Z,58.65
2022-09-26T12:19:16.760Z,58.66
2022-09-26T12:22:11.381Z,58.56
2022-09-26T12:24:56.433Z,58.35
2022-09-26T12:27:25.777Z,58.35
2022-09-26T12:30:02.993Z,58.00
2022-09-26T12:32:50.077Z,57.49
2022-09-26T12:35:18.769Z,57.73
2022-09-26T12:37:57.256Z,57.89
2022-09-26T12:40:40.970Z,57.64
2022-09-26T12:43:07.539Z,57.17
2022-09-26T12:45:53.738Z,57.39
2022-09-26T12:48:32.299Z,57.11
2022-09-26T12:51:12.539Z,56.91
2022-09-26T12:53:52.709Z,57.12
2022-09-26T12:56:19.182Z,56.65
2022-09-26T12:58:45.658Z,56.63
2022-09-26T13:01:32.419Z,56.64
2022-09-26T13:04:05.041Z,56.33
2022-09-26T13:06:37.727Z,56.14
2022-09-26T13:09:30.138Z,56.09
2022-09-26T13:12:09.322Z,56.23
2022-09-26T13:14:39.535Z,56.17
2022-09-26T13:17:13.918Z,56.06
2022-09-26T13:19:48.184Z,56.64
2022-09-26T13:22:17.650Z,57.37
2022-09-26T13:25:05.915Z,58.00
2022-09-26T13:27:36.214Z,58.61
2022-09-26T13:30:15.841Z,58.79
2022-09-26T13:32:49.899Z,59.58
2022-09-26T13:35:20.906Z,59.61
2022-09-26T13:38:02.977Z,59.99
2022-09-26T13:40:42.890Z,60.55
2022-09-26T13:43:19.320Z,60.11
2022-09-26T13:46:14.305Z,60.51
2022-09-26T13:48:40.711Z,60.70
2022-09-26T13:51:39.337Z,60.90
2022-09-26T13:54:16.782Z,60.75
2022-09-26T13:56:47.495Z,60.87
2022-09-26T13:59:14.543Z,60.72
2022-09-26T14:01:59.707Z,60.39
2022-09-26T14:04:33.641Z,59.96
2022-09-26T14:07:28.989Z,59.64
2022-09-26T14:09:55.344Z,59.76
2022-09-26T14:12:32.136Z,59.71
2022-09-26T14:15:16.887Z,59.73
2022-09-26T14:17:43.433Z,59.45
2022-09-26T14:20:27.280Z,59.65
2022-09-26T14:22:55.139Z,59.13
2022-09-26T14:25:44.903Z,59.02
2022-09-26T14:28:21.581Z,59.29
2022-09-26T14:31:13.921Z,59.04
2022-09-26T14:33:40.690Z,58.65
2022-09-26T14:36:18.084Z,58.23
2022-09-26T14:38:48.479Z,58.39
2022-09-26T14:41:18.992Z,58.25
2022-09-26T14:43:46.263Z,58.36
2022-09-26T14:46:17.845Z,58.13
2022-09-26T14:48:44.976Z,58.44
2022-09-26T14:51:11.442Z,58.05
2022-09-26T14:53:47.056Z,57.67
2022-09-26T14:56:18.268Z,57.96
2022-09-26T14:58:46.186Z,57.96
2022-09-26T15:01:18.020Z,58.18
2022-09-26T15:03:59.994Z,58.22
2022-09-26T15:06:27.633Z,58.29
2022-09-26T15:08:54.896Z,58.25
2022-09-26T15:11:33.013Z,58.44
2022-09-26T15:14:01.849Z,57.73
2022-09-26T15:16:32.450Z,57.60
2022-09-26T15:19:02.930Z,57.46
2022-09-26T15:21:50.836Z,58.01
2022-09-26T15:24:23.894Z,58.29
2022-09-26T15:26:50.285Z,58.42
2022-09-26T15:29:17.574Z,58.43
2022-09-26T15:31:44.779Z,58.94
2022-09-26T15:34:16.440Z,59.33
2022-09-26T15:36:44.280Z,59.80
2022-09-26T15:39:29.472Z,59.82
2022-09-26T15:42:14.580Z,60.08
2022-09-26T15:45:07.398Z,60.12
2022-09-26T15:47:41.467Z,60.33
2022-09-26T15:50:12.631Z,60.77
2022-09-26T15:52:42.412Z,60.70
2022-09-26T15:55:15.372Z,61.08
2022-09-26T15:57:42.426Z,61.37
2022-09-26T16:00:09.947Z,61.36
2022-09-26T16:02:37.180Z,61.67
2022-09-26T16:05:03.745Z,62.12
2022-09-26T16:07:33.147Z,62.18
2022-09-26T16:09:59.701Z,62.38
2022-09-26T16:12:29.427Z,62.36
2022-09-26T16:15:02.714Z,62.18
2022-09-26T16:17:36.519Z,62.25
2022-09-26T16:20:18.185Z,62.27
2022-09-26T16:22:45.459Z,62.49
2022-09-26T16:25:18.379Z,62.62
2022-09-26T16:27:49.553Z,62.45
2022-09-26T16:30:23.596Z,62.63
2022-09-26T16:32:50.819Z,62.79
2022-09-26T16:35:19.683Z,62.74
2022-09-26T16:38:03.591Z,63.50
2022-09-26T16:40:31.114Z,63.54
2022-09-26T16:43:13.992Z,63.60
2022-09-26T16:45:50.250Z,64.07
2022-09-26T16:48:52.149Z,63.94
2022-09-26T16:51:21.329Z,64.08
2022-09-26T16:53:49.426Z,64.46
2022-09-26T16:56:17.444Z,64.60
2022-09-26T16:58:55.218Z,64.76
2022-09-26T17:01:40.997Z,64.96
2022-09-26T17:04:18.290Z,65.40
2022-09-26T17:06:47.723Z,65.32
2022-09-26T17:09:15.969Z,65.35
2022-09-26T17:11:43.214Z,63.96
2022-09-26T17:14:13.097Z,63.78
2022-09-26T17:16:39.541Z,63.80
2022-09-26T17:19:06.014Z,63.89
2022-09-26T17:21:32.436Z,63.74
2022-09-26T17:23:58.856Z,64.20
2022-09-26T17:26:25.439Z,64.15
2022-09-26T17:28:53.241Z,63.97
2022-09-26T17:31:20.351Z,63.93
2022-09-26T17:33:49.272Z,64.13
2022-09-26T17:36:27.215Z,64.22
2022-09-26T17:38:54.714Z,64.57
2022-09-26T17:41:23.044Z,64.28
2022-09-26T17:43:58.754Z,64.69
2022-09-26T17:46:25.756Z,64.53
2022-09-26T17:48:52.251Z,64.65
2022-09-26T17:51:21.043Z,64.92
2022-09-26T17:53:51.078Z,64.75
2022-09-26T17:56:21.869Z,65.23
2022-09-26T17:58:48.953Z,65.33
2022-09-26T18:01:22.233Z,64.92
2022-09-26T18:03:49.958Z,65.66
2022-09-26T18:06:16.734Z,65.58
2022-09-26T18:08:43.653Z,65.78
2022-09-26T18:11:14.957Z,65.86
2022-09-26T18:13:47.336Z,66.11
2022-09-26T18:16:14.753Z,66.13
2022-09-26T18:18:41.234Z,66.10
2022-09-26T18:21:12.226Z,66.66
2022-09-26T18:23:38.585Z,66.53
2022-09-26T18:26:05.341Z,66.73
2022-09-26T18:28:31.947Z,66.99
2022-09-26T18:31:00.901Z,67.13
2022-09-26T18:33:29.100Z,67.15
2022-09-26T18:35:58.484Z,67.11
2022-09-26T18:38:25.247Z,67.46
2022-09-26T18:40:55.313Z,67.56
2022-09-26T18:43:23.144Z,67.84
2022-09-26T18:45:50.054Z,67.82
2022-09-26T18:48:24.424Z,68.01
2022-09-26T18:50:51.181Z,68.36
2022-09-26T18:53:19.432Z,68.31
2022-09-26T18:56:04.362Z,68.33
2022-09-26T18:58:32.351Z,68.56
2022-09-26T19:01:00.767Z,68.80
2022-09-26T19:03:28.507Z,68.75
2022-09-26T19:06:00.253Z,69.28
2022-09-26T19:08:37.923Z,69.54
2022-09-26T19:11:13.176Z,69.79
2022-09-26T19:13:40.334Z,70.00
2022-09-26T19:16:07.135Z,69.98
2022-09-26T19:18:33.542Z,70.37
2022-09-26T19:21:00.811Z,70.57
2022-09-26T19:23:30.183Z,70.83
2022-09-26T19:25:56.783Z,70.63
2022-09-26T19:28:24.245Z,71.09
2022-09-26T19:30:50.875Z,70.55
2022-09-26T19:33:17.460Z,70.88
2022-09-26T19:35:44.514Z,71.10
2022-09-26T19:38:19.066Z,71.13
2022-09-26T19:40:48.772Z,71.57
2022-09-26T19:43:15.712Z,71.93
2022-09-26T19:45:43.512Z,71.68
2022-09-26T19:48:13.266Z,71.60
2022-09-26T19:50:40.188Z,71.68
2022-09-26T19:53:12.526Z,72.40
2022-09-26T19:55:39.432Z,72.02
2022-09-26T19:58:17.083Z,71.98
2022-09-26T20:00:44.735Z,72.10
2022-09-26T20:03:15.592Z,72.22
2022-09-26T20:05:42.255Z,72.31
2022-09-26T20:08:12.821Z,72.55
2022-09-26T20:10:39.194Z,72.62
2022-09-26T20:13:05.563Z,72.71
2022-09-26T20:15:32.020Z,72.47
2022-09-26T20:18:00.272Z,72.60
2022-09-26T20:20:27.607Z,72.62
2022-09-26T20:22:58.657Z,72.67
2022-09-26T20:25:27.221Z,72.07
2022-09-26T20:27:54.724Z,72.28
2022-09-26T20:30:39.988Z,72.53
2022-09-26T20:33:06.758Z,72.82
2022-09-26T20:35:36.684Z,72.57
2022-09-26T20:38:05.041Z,72.78
2022-09-26T20:40:32.224Z,72.89
2022-09-26T20:43:03.784Z,73.05
2022-09-26T20:45:31.689Z,73.07
2022-09-26T20:47:59.268Z,73.11
2022-09-26T20:50:29.467Z,73.18
2022-09-26T20:52:58.303Z,73.37
2022-09-26T20:55:24.825Z,73.47
2022-09-26T20:57:51.462Z,73.75
2022-09-26T21:00:19.473Z,73.79
2022-09-26T21:02:47.412Z,74.30
2022-09-26T21:05:18.324Z,74.13
2022-09-26T21:07:44.936Z,74.27
2022-09-26T21:10:28.697Z,74.17
2022-09-26T21:12:56.632Z,74.36
2022-09-26T21:15:23.842Z,73.98
2022-09-26T21:17:51.464Z,74.41
2022-09-26T21:20:25.609Z,74.56
2022-09-26T21:23:02.120Z,74.83
2022-09-26T21:25:30.130Z,74.50
2022-09-26T21:28:01.412Z,74.73
2022-09-26T21:30:28.224Z,75.03
2022-09-26T21:32:56.202Z,75.18
2022-09-26T21:35:24.365Z,75.01
2022-09-26T21:37:52.117Z,75.13
2022-09-26T21:40:19.853Z,75.17
2022-09-26T21:42:50.427Z,75.10
2022-09-26T21:45:17.398Z,75.20
2022-09-26T21:47:44.092Z,74.93
2022-09-26T21:50:12.253Z,75.06
2022-09-26T21:52:41.071Z,75.51
2022-09-26T21:55:10.565Z,75.71
2022-09-26T21:57:41.829Z,75.67
2022-09-26T22:00:10.490Z,75.28
2022-09-26T22:02:41.474Z,75.82
2022-09-26T22:05:09.237Z,75.74
2022-09-26T22:07:35.929Z,75.77
2022-09-26T22:10:02.752Z,75.98
2022-09-26T22:12:29.184Z,76.00
2022-09-26T22:14:55.675Z,76.28
2022-09-26T22:17:22.492Z,76.05
2022-09-26T22:19:49.353Z,76.28
2022-09-26T22:22:17.234Z,76.37
2022-09-26T22:24:43.618Z,76.40
2022-09-26T22:27:10.170Z,76.26
2022-09-26T22:29:36.585Z,76.29
2022-09-26T22:32:03.949Z,76.53
2022-09-26T22:34:32.180Z,76.63
2022-09-26T22:36:58.588Z,76.84
2022-09-26T22:39:25.001Z,76.90
2022-09-26T22:41:51.416Z,76.69
2022-09-26T22:44:17.925Z,76.69
2022-09-26T22:46:44.405Z,76.68
2022-09-26T22:49:10.921Z,76.60
2022-09-26T22:51:37.397Z,76.92
2022-09-26T22:54:03.832Z,76.77
2022-09-26T22:56:30.333Z,76.75
2022-09-26T22:58:56.765Z,76.92
2022-09-26T23:01:24.777Z,76.93
2022-09-26T23:03:54.464Z,76.82
2022-09-26T23:06:21.986Z,76.88
2022-09-26T23:08:48.531Z,76.59
2022-09-26T23:11:15.117Z,76.71
2022-09-26T23:13:41.684Z,76.76
2022-09-26T23:16:17.000Z,76.81
2022-09-26T23:18:43.895Z,76.84
2022-09-26T23:21:11.600Z,76.85
2022-09-26T23:23:38.780Z,76.99
2022-09-26T23:26:13.740Z,77.28
2022-09-26T23:28:40.247Z,77.10
2022-09-26T23:31:07.898Z,77.42
2022-09-26T23:33:34.573Z,77.60
2022-09-26T23:36:01.162Z,77.44
2022-09-26T23:38:27.926Z,77.65
2022-09-26T23:40:54.966Z,77.57
2022-09-26T23:43:22.061Z,77.50
2022-09-26T23:45:48.869Z,77.67
2022-09-26T23:48:15.868Z,77.45
2022-09-26T23:50:43.762Z,77.41
2022-09-26T23:53:10.652Z,77.38
2022-09-26T23:55:37.092Z,77.67
2022-09-26T23:58:03.597Z,77.59
